sensor_id;sensor_type;location;lat;lon;timestamp;P1;durP1;ratioP1;P2;durP2;ratioP2
40052;SDS011;25758;48.200;16.338;2022-09-09T00:00:40;0.80;;;0.10;;
40052;SDS011;25758;48.200;16.338;2022-09-09T00:03:53;0.65;;;0.10;;
40052;SDS011;25758;48.200;16.338;2022-09-09T00:06:27;0.43;;;0.10;;
40052;SDS011;25758;48.200;16.338;2022-09-09T00:09:12;1.05;;;0.20;;
40052;SDS011;25758;48.200;16.338;2022-09-09T00:11:43;2.97;;;0.17;;
40052;SDS011;25758;48.200;16.338;2022-09-09T00:14:14;1.00;;;0.10;;
40052;SDS011;25758;48.200;16.338;2022-09-09T00:16:45;0.30;;;0.10;;
40052;SDS011;25758;48.200;16.338;2022-09-09T00:19:18;1.23;;;0.10;;
40052;SDS011;25758;48.200;16.338;2022-09-09T00:24:37;1.13;;;0.20;;
40052;SDS011;25758;48.200;16.338;2022-09-09T00:27:08;3.40;;;0.28;;
40052;SDS011;25758;48.200;16.338;2022-09-09T00:30:16;0.52;;;0.20;;
40052;SDS011;25758;48.200;16.338;2022-09-09T00:33:08;0.95;;;0.20;;
40052;SDS011;25758;48.200;16.338;2022-09-09T00:35:42;1.17;;;0.10;;
40052;SDS011;25758;48.200;16.338;2022-09-09T00:38:13;1.73;;;0.10;;
40052;SDS011;25758;48.200;16.338;2022-09-09T00:43:36;0.57;;;0.10;;
40052;SDS011;25758;48.200;16.338;2022-09-09T01:02:49;2.30;;;0.10;;
40052;SDS011;25758;48.200;16.338;2022-09-09T01:05:51;0.50;;;0.00;;
40052;SDS011;25758;48.200;16.338;2022-09-09T01:11:04;0.75;;;0.00;;
40052;SDS011;25758;48.200;16.338;2022-09-09T01:13:39;0.73;;;0.05;;
40052;SDS011;25758;48.200;16.338;2022-09-09T01:16:08;0.30;;;0.00;;
40052;SDS011;25758;48.200;16.338;2022-09-09T01:18:40;1.25;;;0.10;;
40052;SDS011;25758;48.200;16.338;2022-09-09T01:26:37;2.05;;;0.00;;
40052;SDS011;25758;48.200;16.338;2022-09-09T01:29:09;0.75;;;0.15;;
40052;SDS011;25758;48.200;16.338;2022-09-09T01:31:42;0.30;;;0.10;;
40052;SDS011;25758;48.200;16.338;2022-09-09T01:34:23;0.43;;;0.10;;
40052;SDS011;25758;48.200;16.338;2022-09-09T01:36:53;0.17;;;0.00;;
40052;SDS011;25758;48.200;16.338;2022-09-09T01:39:29;0.20;;;0.00;;
40052;SDS011;25758;48.200;16.338;2022-09-09T01:41:56;2.35;;;0.10;;
40052;SDS011;25758;48.200;16.338;2022-09-09T01:44:21;0.60;;;0.15;;
40052;SDS011;25758;48.200;16.338;2022-09-09T01:46:49;0.30;;;0.00;;
40052;SDS011;25758;48.200;16.338;2022-09-09T01:49:15;0.80;;;0.10;;
40052;SDS011;25758;48.200;16.338;2022-09-09T01:51:42;2.17;;;0.10;;
40052;SDS011;25758;48.200;16.338;2022-09-09T01:54:09;0.43;;;0.10;;
40052;SDS011;25758;48.200;16.338;2022-09-09T02:04:36;0.65;;;0.10;;
40052;SDS011;25758;48.200;16.338;2022-09-09T02:07:03;0.90;;;0.10;;
40052;SDS011;25758;48.200;16.338;2022-09-09T02:09:37;1.05;;;0.10;;
40052;SDS011;25758;48.200;16.338;2022-09-09T02:12:11;0.20;;;0.00;;
40052;SDS011;25758;48.200;16.338;2022-09-09T02:14:41;0.82;;;0.10;;
40052;SDS011;25758;48.200;16.338;2022-09-09T02:17:13;0.30;;;0.03;;
40052;SDS011;25758;48.200;16.338;2022-09-09T02:19:45;2.92;;;0.10;;
40052;SDS011;25758;48.200;16.338;2022-09-09T02:22:17;4.22;;;0.20;;
40052;SDS011;25758;48.200;16.338;2022-09-09T02:24:47;3.45;;;0.10;;
40052;SDS011;25758;48.200;16.338;2022-09-09T02:27:15;2.13;;;0.10;;
40052;SDS011;25758;48.200;16.338;2022-09-09T02:29:44;2.65;;;0.10;;
40052;SDS011;25758;48.200;16.338;2022-09-09T02:32:13;0.63;;;0.20;;
40052;SDS011;25758;48.200;16.338;2022-09-09T02:34:46;1.42;;;0.10;;
40052;SDS011;25758;48.200;16.338;2022-09-09T02:37:15;1.05;;;0.80;;
40052;SDS011;25758;48.200;16.338;2022-09-09T02:39:43;2.65;;;0.20;;
40052;SDS011;25758;48.200;16.338;2022-09-09T02:42:09;0.75;;;0.00;;
40052;SDS011;25758;48.200;16.338;2022-09-09T02:44:34;1.45;;;0.20;;
40052;SDS011;25758;48.200;16.338;2022-09-09T02:55:39;0.80;;;0.30;;
40052;SDS011;25758;48.200;16.338;2022-09-09T02:58:11;1.08;;;0.10;;
40052;SDS011;25758;48.200;16.338;2022-09-09T03:00:42;2.72;;;0.13;;
40052;SDS011;25758;48.200;16.338;2022-09-09T03:03:10;0.77;;;0.10;;
40052;SDS011;25758;48.200;16.338;2022-09-09T03:05:36;2.28;;;0.10;;
40052;SDS011;25758;48.200;16.338;2022-09-09T03:08:03;0.20;;;0.10;;
40052;SDS011;25758;48.200;16.338;2022-09-09T03:10:30;1.27;;;0.10;;
40052;SDS011;25758;48.200;16.338;2022-09-09T03:12:57;0.82;;;0.20;;
40052;SDS011;25758;48.200;16.338;2022-09-09T03:15:22;5.32;;;0.30;;
40052;SDS011;25758;48.200;16.338;2022-09-09T03:17:48;0.77;;;0.30;;
40052;SDS011;25758;48.200;16.338;2022-09-09T03:20:13;0.75;;;0.10;;
40052;SDS011;25758;48.200;16.338;2022-09-09T03:22:39;1.08;;;0.20;;
40052;SDS011;25758;48.200;16.338;2022-09-09T03:25:05;1.70;;;0.20;;
40052;SDS011;25758;48.200;16.338;2022-09-09T03:27:31;4.13;;;0.20;;
40052;SDS011;25758;48.200;16.338;2022-09-09T03:29:57;2.53;;;0.10;;
40052;SDS011;25758;48.200;16.338;2022-09-09T03:32:23;0.90;;;0.10;;
40052;SDS011;25758;48.200;16.338;2022-09-09T03:34:50;1.63;;;0.30;;
40052;SDS011;25758;48.200;16.338;2022-09-09T03:37:17;3.13;;;0.40;;
40052;SDS011;25758;48.200;16.338;2022-09-09T03:39:43;4.40;;;0.70;;
40052;SDS011;25758;48.200;16.338;2022-09-09T03:42:09;1.98;;;0.20;;
40052;SDS011;25758;48.200;16.338;2022-09-09T03:44:39;2.22;;;0.35;;
40052;SDS011;25758;48.200;16.338;2022-09-09T03:47:06;0.95;;;0.20;;
40052;SDS011;25758;48.200;16.338;2022-09-09T03:49:31;2.22;;;0.32;;
40052;SDS011;25758;48.200;16.338;2022-09-09T03:51:57;0.82;;;0.20;;
40052;SDS011;25758;48.200;16.338;2022-09-09T03:54:24;1.67;;;0.20;;
40052;SDS011;25758;48.200;16.338;2022-09-09T03:56:50;1.40;;;0.30;;
40052;SDS011;25758;48.200;16.338;2022-09-09T03:59:16;1.27;;;0.30;;
40052;SDS011;25758;48.200;16.338;2022-09-09T04:01:42;1.52;;;0.20;;
40052;SDS011;25758;48.200;16.338;2022-09-09T04:04:08;3.83;;;0.45;;
40052;SDS011;25758;48.200;16.338;2022-09-09T04:06:34;4.03;;;0.40;;
40052;SDS011;25758;48.200;16.338;2022-09-09T04:09:00;3.65;;;0.50;;
40052;SDS011;25758;48.200;16.338;2022-09-09T04:11:28;2.35;;;0.13;;
40052;SDS011;25758;48.200;16.338;2022-09-09T04:13:54;2.67;;;0.30;;
40052;SDS011;25758;48.200;16.338;2022-09-09T04:16:19;2.55;;;0.20;;
40052;SDS011;25758;48.200;16.338;2022-09-09T04:18:45;0.80;;;0.20;;
40052;SDS011;25758;48.200;16.338;2022-09-09T04:21:11;5.00;;;0.65;;
40052;SDS011;25758;48.200;16.338;2022-09-09T04:23:37;2.08;;;0.55;;
40052;SDS011;25758;48.200;16.338;2022-09-09T04:26:03;1.60;;;0.52;;
40052;SDS011;25758;48.200;16.338;2022-09-09T04:28:31;3.33;;;0.30;;
40052;SDS011;25758;48.200;16.338;2022-09-09T04:31:08;0.82;;;0.35;;
40052;SDS011;25758;48.200;16.338;2022-09-09T04:33:37;1.50;;;0.45;;
40052;SDS011;25758;48.200;16.338;2022-09-09T04:36:04;2.42;;;0.90;;
40052;SDS011;25758;48.200;16.338;2022-09-09T04:38:30;2.20;;;0.57;;
40052;SDS011;25758;48.200;16.338;2022-09-09T04:40:55;3.92;;;0.85;;
40052;SDS011;25758;48.200;16.338;2022-09-09T04:43:22;4.50;;;0.50;;
40052;SDS011;25758;48.200;16.338;2022-09-09T04:45:48;1.70;;;0.40;;
40052;SDS011;25758;48.200;16.338;2022-09-09T04:48:16;3.50;;;0.50;;
40052;SDS011;25758;48.200;16.338;2022-09-09T04:50:41;2.47;;;0.45;;
40052;SDS011;25758;48.200;16.338;2022-09-09T04:53:07;3.45;;;0.68;;
40052;SDS011;25758;48.200;16.338;2022-09-09T04:55:34;3.85;;;0.90;;
40052;SDS011;25758;48.200;16.338;2022-09-09T04:58:06;4.20;;;0.50;;
40052;SDS011;25758;48.200;16.338;2022-09-09T05:00:34;3.58;;;0.55;;
40052;SDS011;25758;48.200;16.338;2022-09-09T05:03:04;3.38;;;0.70;;
40052;SDS011;25758;48.200;16.338;2022-09-09T05:05:31;2.72;;;0.65;;
40052;SDS011;25758;48.200;16.338;2022-09-09T05:08:04;3.15;;;0.70;;
40052;SDS011;25758;48.200;16.338;2022-09-09T05:10:31;9.23;;;1.20;;
40052;SDS011;25758;48.200;16.338;2022-09-09T05:12:58;15.75;;;1.38;;
40052;SDS011;25758;48.200;16.338;2022-09-09T05:15:24;12.07;;;1.20;;
40052;SDS011;25758;48.200;16.338;2022-09-09T05:17:49;5.90;;;0.90;;
40052;SDS011;25758;48.200;16.338;2022-09-09T05:20:17;11.27;;;0.90;;
40052;SDS011;25758;48.200;16.338;2022-09-09T05:22:43;2.47;;;0.73;;
40052;SDS011;25758;48.200;16.338;2022-09-09T05:25:09;4.35;;;0.80;;
40052;SDS011;25758;48.200;16.338;2022-09-09T05:27:34;3.20;;;0.80;;
40052;SDS011;25758;48.200;16.338;2022-09-09T05:30:00;4.60;;;0.80;;
40052;SDS011;25758;48.200;16.338;2022-09-09T05:32:25;5.40;;;0.50;;
40052;SDS011;25758;48.200;16.338;2022-09-09T05:34:51;3.30;;;0.90;;
40052;SDS011;25758;48.200;16.338;2022-09-09T05:37:17;6.72;;;0.55;;
40052;SDS011;25758;48.200;16.338;2022-09-09T05:39:43;1.60;;;0.60;;
40052;SDS011;25758;48.200;16.338;2022-09-09T05:42:09;4.50;;;1.25;;
40052;SDS011;25758;48.200;16.338;2022-09-09T05:44:34;7.13;;;0.73;;
40052;SDS011;25758;48.200;16.338;2022-09-09T05:47:00;5.32;;;1.70;;
40052;SDS011;25758;48.200;16.338;2022-09-09T05:49:26;5.22;;;0.70;;
40052;SDS011;25758;48.200;16.338;2022-09-09T05:51:52;5.47;;;1.23;;
40052;SDS011;25758;48.200;16.338;2022-09-09T05:54:18;7.47;;;0.73;;
40052;SDS011;25758;48.200;16.338;2022-09-09T05:56:43;4.78;;;1.10;;
40052;SDS011;25758;48.200;16.338;2022-09-09T05:59:09;3.40;;;1.05;;
40052;SDS011;25758;48.200;16.338;2022-09-09T06:01:36;4.25;;;1.10;;
40052;SDS011;25758;48.200;16.338;2022-09-09T06:04:05;2.05;;;0.80;;
40052;SDS011;25758;48.200;16.338;2022-09-09T06:06:32;5.15;;;0.95;;
40052;SDS011;25758;48.200;16.338;2022-09-09T06:09:04;11.03;;;1.53;;
40052;SDS011;25758;48.200;16.338;2022-09-09T06:11:34;4.07;;;0.90;;
40052;SDS011;25758;48.200;16.338;2022-09-09T06:14:01;4.07;;;0.90;;
40052;SDS011;25758;48.200;16.338;2022-09-09T06:16:27;5.85;;;0.80;;
40052;SDS011;25758;48.200;16.338;2022-09-09T06:18:54;5.10;;;0.85;;
40052;SDS011;25758;48.200;16.338;2022-09-09T06:21:29;10.85;;;2.08;;
40052;SDS011;25758;48.200;16.338;2022-09-09T06:23:56;3.33;;;0.93;;
40052;SDS011;25758;48.200;16.338;2022-09-09T06:26:35;9.38;;;1.40;;
40052;SDS011;25758;48.200;16.338;2022-09-09T06:29:03;10.48;;;1.63;;
40052;SDS011;25758;48.200;16.338;2022-09-09T06:31:29;9.60;;;0.98;;
40052;SDS011;25758;48.200;16.338;2022-09-09T06:33:56;10.07;;;1.63;;
40052;SDS011;25758;48.200;16.338;2022-09-09T06:36:30;7.10;;;1.98;;
40052;SDS011;25758;48.200;16.338;2022-09-09T06:38:57;4.80;;;1.35;;
40052;SDS011;25758;48.200;16.338;2022-09-09T06:41:24;4.70;;;1.42;;
40052;SDS011;25758;48.200;16.338;2022-09-09T06:43:51;8.02;;;1.30;;
40052;SDS011;25758;48.200;16.338;2022-09-09T06:48:44;7.43;;;1.67;;
40052;SDS011;25758;48.200;16.338;2022-09-09T06:51:18;6.72;;;1.50;;
40052;SDS011;25758;48.200;16.338;2022-09-09T06:53:49;3.28;;;1.05;;
40052;SDS011;25758;48.200;16.338;2022-09-09T06:58:42;5.60;;;1.48;;
40052;SDS011;25758;48.200;16.338;2022-09-09T07:01:15;6.20;;;1.67;;
40052;SDS011;25758;48.200;16.338;2022-09-09T07:03:42;3.88;;;1.83;;
40052;SDS011;25758;48.200;16.338;2022-09-09T07:06:14;9.82;;;1.13;;
40052;SDS011;25758;48.200;16.338;2022-09-09T07:08:42;2.78;;;1.42;;
40052;SDS011;25758;48.200;16.338;2022-09-09T07:11:08;5.88;;;1.08;;
40052;SDS011;25758;48.200;16.338;2022-09-09T07:13:34;4.22;;;0.70;;
40052;SDS011;25758;48.200;16.338;2022-09-09T07:16:04;5.07;;;0.88;;
40052;SDS011;25758;48.200;16.338;2022-09-09T07:18:31;6.13;;;1.38;;
40052;SDS011;25758;48.200;16.338;2022-09-09T07:20:56;4.00;;;1.20;;
40052;SDS011;25758;48.200;16.338;2022-09-09T07:23:22;3.63;;;1.05;;
40052;SDS011;25758;48.200;16.338;2022-09-09T07:25:49;7.95;;;4.25;;
40052;SDS011;25758;48.200;16.338;2022-09-09T07:28:15;3.60;;;1.40;;
40052;SDS011;25758;48.200;16.338;2022-09-09T07:30:41;3.63;;;0.98;;
40052;SDS011;25758;48.200;16.338;2022-09-09T07:33:07;6.75;;;1.70;;
40052;SDS011;25758;48.200;16.338;2022-09-09T07:35:34;4.13;;;1.30;;
40052;SDS011;25758;48.200;16.338;2022-09-09T07:38:02;8.85;;;1.73;;
40052;SDS011;25758;48.200;16.338;2022-09-09T07:40:31;11.48;;;1.35;;
40052;SDS011;25758;48.200;16.338;2022-09-09T07:42:57;7.90;;;1.20;;
40052;SDS011;25758;48.200;16.338;2022-09-09T07:45:24;7.97;;;1.50;;
40052;SDS011;25758;48.200;16.338;2022-09-09T07:47:49;8.30;;;1.20;;
40052;SDS011;25758;48.200;16.338;2022-09-09T07:50:15;7.40;;;1.38;;
40052;SDS011;25758;48.200;16.338;2022-09-09T07:52:41;5.72;;;1.10;;
40052;SDS011;25758;48.200;16.338;2022-09-09T07:55:06;6.30;;;1.52;;
40052;SDS011;25758;48.200;16.338;2022-09-09T07:57:32;9.85;;;1.40;;
40052;SDS011;25758;48.200;16.338;2022-09-09T07:59:58;7.63;;;1.50;;
40052;SDS011;25758;48.200;16.338;2022-09-09T08:02:24;6.47;;;1.95;;
40052;SDS011;25758;48.200;16.338;2022-09-09T08:04:50;4.97;;;1.48;;
40052;SDS011;25758;48.200;16.338;2022-09-09T08:07:17;12.13;;;1.73;;
40052;SDS011;25758;48.200;16.338;2022-09-09T08:09:43;9.57;;;2.10;;
40052;SDS011;25758;48.200;16.338;2022-09-09T08:12:08;11.13;;;1.95;;
40052;SDS011;25758;48.200;16.338;2022-09-09T08:14:35;6.18;;;1.40;;
40052;SDS011;25758;48.200;16.338;2022-09-09T08:17:01;9.32;;;2.03;;
40052;SDS011;25758;48.200;16.338;2022-09-09T08:19:27;10.88;;;1.48;;
40052;SDS011;25758;48.200;16.338;2022-09-09T08:21:55;11.68;;;2.15;;
40052;SDS011;25758;48.200;16.338;2022-09-09T08:24:20;7.72;;;1.55;;
40052;SDS011;25758;48.200;16.338;2022-09-09T08:26:48;5.55;;;1.20;;
40052;SDS011;25758;48.200;16.338;2022-09-09T08:29:14;2.03;;;0.70;;
40052;SDS011;25758;48.200;16.338;2022-09-09T08:31:45;8.35;;;1.23;;
40052;SDS011;25758;48.200;16.338;2022-09-09T08:34:12;5.30;;;1.15;;
40052;SDS011;25758;48.200;16.338;2022-09-09T08:36:42;13.35;;;1.63;;
40052;SDS011;25758;48.200;16.338;2022-09-09T08:39:10;4.45;;;0.82;;
40052;SDS011;25758;48.200;16.338;2022-09-09T08:47:10;4.68;;;0.77;;
40052;SDS011;25758;48.200;16.338;2022-09-09T08:49:54;4.47;;;0.60;;
40052;SDS011;25758;48.200;16.338;2022-09-09T08:58:11;3.75;;;0.80;;
40052;SDS011;25758;48.200;16.338;2022-09-09T09:00:44;4.63;;;0.60;;
40052;SDS011;25758;48.200;16.338;2022-09-09T09:11:38;4.45;;;0.60;;
40052;SDS011;25758;48.200;16.338;2022-09-09T09:19:17;3.35;;;0.70;;
40052;SDS011;25758;48.200;16.338;2022-09-09T09:21:44;3.38;;;0.55;;
40052;SDS011;25758;48.200;16.338;2022-09-09T09:24:19;2.33;;;0.60;;
40052;SDS011;25758;48.200;16.338;2022-09-09T09:26:49;1.77;;;0.30;;
40052;SDS011;25758;48.200;16.338;2022-09-09T09:29:18;1.55;;;0.35;;
40052;SDS011;25758;48.200;16.338;2022-09-09T09:31:51;2.88;;;0.30;;
40052;SDS011;25758;48.200;16.338;2022-09-09T09:34:19;0.80;;;0.30;;
40052;SDS011;25758;48.200;16.338;2022-09-09T09:36:56;2.22;;;0.35;;
40052;SDS011;25758;48.200;16.338;2022-09-09T09:39:24;3.72;;;0.63;;
40052;SDS011;25758;48.200;16.338;2022-09-09T09:41:51;4.13;;;0.95;;
40052;SDS011;25758;48.200;16.338;2022-09-09T09:44:28;6.15;;;0.98;;
40052;SDS011;25758;48.200;16.338;2022-09-09T09:52:24;3.70;;;0.80;;
40052;SDS011;25758;48.200;16.338;2022-09-09T09:54:53;6.63;;;2.78;;
40052;SDS011;25758;48.200;16.338;2022-09-09T09:57:22;7.35;;;1.25;;
40052;SDS011;25758;48.200;16.338;2022-09-09T09:59:59;4.72;;;0.98;;
40052;SDS011;25758;48.200;16.338;2022-09-09T10:02:43;1.67;;;0.68;;
40052;SDS011;25758;48.200;16.338;2022-09-09T10:05:20;5.38;;;0.88;;
40052;SDS011;25758;48.200;16.338;2022-09-09T10:07:46;2.67;;;0.30;;
40052;SDS011;25758;48.200;16.338;2022-09-09T10:10:26;1.38;;;0.30;;
40052;SDS011;25758;48.200;16.338;2022-09-09T10:21:12;3.75;;;0.20;;
40052;SDS011;25758;48.200;16.338;2022-09-09T10:24:00;1.52;;;0.40;;
40052;SDS011;25758;48.200;16.338;2022-09-09T10:26:53;2.83;;;0.30;;
40052;SDS011;25758;48.200;16.338;2022-09-09T10:34:56;2.53;;;0.20;;
40052;SDS011;25758;48.200;16.338;2022-09-09T10:40:19;2.45;;;0.50;;
40052;SDS011;25758;48.200;16.338;2022-09-09T10:43:00;3.80;;;0.50;;
40052;SDS011;25758;48.200;16.338;2022-09-09T10:54:21;4.30;;;0.50;;
40052;SDS011;25758;48.200;16.338;2022-09-09T10:59:53;4.90;;;1.48;;
40052;SDS011;25758;48.200;16.338;2022-09-09T11:02:29;3.38;;;0.60;;
40052;SDS011;25758;48.200;16.338;2022-09-09T11:05:08;2.42;;;0.40;;
40052;SDS011;25758;48.200;16.338;2022-09-09T11:08:04;5.15;;;1.17;;
40052;SDS011;25758;48.200;16.338;2022-09-09T11:10:58;4.25;;;0.75;;
40052;SDS011;25758;48.200;16.338;2022-09-09T11:18:57;2.65;;;0.30;;
40052;SDS011;25758;48.200;16.338;2022-09-09T11:21:37;5.97;;;0.52;;
40052;SDS011;25758;48.200;16.338;2022-09-09T11:24:13;6.15;;;0.40;;
40052;SDS011;25758;48.200;16.338;2022-09-09T11:27:19;5.43;;;0.30;;
40052;SDS011;25758;48.200;16.338;2022-09-09T11:32:08;3.65;;;0.30;;
40052;SDS011;25758;48.200;16.338;2022-09-09T11:37:36;3.17;;;0.20;;
40052;SDS011;25758;48.200;16.338;2022-09-09T11:40:24;3.40;;;0.35;;
40052;SDS011;25758;48.200;16.338;2022-09-09T11:43:02;3.20;;;0.20;;
40052;SDS011;25758;48.200;16.338;2022-09-09T11:45:30;3.13;;;0.35;;
40052;SDS011;25758;48.200;16.338;2022-09-09T11:48:00;2.63;;;0.30;;
40052;SDS011;25758;48.200;16.338;2022-09-09T11:50:28;1.40;;;0.20;;
40052;SDS011;25758;48.200;16.338;2022-09-09T11:55:45;1.60;;;0.30;;
40052;SDS011;25758;48.200;16.338;2022-09-09T12:00:37;2.63;;;0.20;;
40052;SDS011;25758;48.200;16.338;2022-09-09T12:03:31;1.58;;;0.40;;
40052;SDS011;25758;48.200;16.338;2022-09-09T12:06:13;2.53;;;0.65;;
40052;SDS011;25758;48.200;16.338;2022-09-09T12:08:47;1.27;;;0.30;;
40052;SDS011;25758;48.200;16.338;2022-09-09T12:11:27;0.57;;;0.22;;
40052;SDS011;25758;48.200;16.338;2022-09-09T12:13:57;1.05;;;0.20;;
40052;SDS011;25758;48.200;16.338;2022-09-09T12:16:36;1.02;;;0.30;;
40052;SDS011;25758;48.200;16.338;2022-09-09T12:19:04;4.03;;;0.30;;
40052;SDS011;25758;48.200;16.338;2022-09-09T12:21:42;1.70;;;0.40;;
40052;SDS011;25758;48.200;16.338;2022-09-09T12:27:11;3.83;;;0.30;;
40052;SDS011;25758;48.200;16.338;2022-09-09T12:32:24;1.92;;;0.20;;
40052;SDS011;25758;48.200;16.338;2022-09-09T12:38:04;4.05;;;0.40;;
40052;SDS011;25758;48.200;16.338;2022-09-09T12:40:39;3.53;;;0.38;;
40052;SDS011;25758;48.200;16.338;2022-09-09T12:43:18;2.92;;;0.10;;
40052;SDS011;25758;48.200;16.338;2022-09-09T12:45:46;1.17;;;0.20;;
40052;SDS011;25758;48.200;16.338;2022-09-09T12:48:15;1.27;;;0.30;;
40052;SDS011;25758;48.200;16.338;2022-09-09T12:50:50;0.80;;;0.10;;
40052;SDS011;25758;48.200;16.338;2022-09-09T12:58:27;2.22;;;0.30;;
40052;SDS011;25758;48.200;16.338;2022-09-09T13:00:57;3.10;;;0.20;;
40052;SDS011;25758;48.200;16.338;2022-09-09T13:03:25;0.55;;;0.20;;
40052;SDS011;25758;48.200;16.338;2022-09-09T13:05:51;1.13;;;0.10;;
40052;SDS011;25758;48.200;16.338;2022-09-09T13:08:18;2.47;;;0.20;;
40052;SDS011;25758;48.200;16.338;2022-09-09T13:13:21;1.95;;;0.20;;
40052;SDS011;25758;48.200;16.338;2022-09-09T13:15:56;2.03;;;0.20;;
40052;SDS011;25758;48.200;16.338;2022-09-09T13:18:31;2.30;;;0.20;;
40052;SDS011;25758;48.200;16.338;2022-09-09T13:21:05;0.30;;;0.10;;
40052;SDS011;25758;48.200;16.338;2022-09-09T13:23:32;3.78;;;0.70;;
40052;SDS011;25758;48.200;16.338;2022-09-09T13:26:04;2.65;;;0.10;;
40052;SDS011;25758;48.200;16.338;2022-09-09T13:28:32;2.47;;;0.30;;
40052;SDS011;25758;48.200;16.338;2022-09-09T13:33:30;1.40;;;0.52;;
40052;SDS011;25758;48.200;16.338;2022-09-09T13:35:59;3.33;;;0.22;;
40052;SDS011;25758;48.200;16.338;2022-09-09T13:38:29;1.13;;;0.15;;
40052;SDS011;25758;48.200;16.338;2022-09-09T13:40:59;2.70;;;0.30;;
40052;SDS011;25758;48.200;16.338;2022-09-09T13:43:45;1.08;;;0.20;;
40052;SDS011;25758;48.200;16.338;2022-09-09T13:49:00;2.22;;;0.55;;
40052;SDS011;25758;48.200;16.338;2022-09-09T13:51:43;4.35;;;0.30;;
40052;SDS011;25758;48.200;16.338;2022-09-09T13:54:12;1.25;;;0.20;;
40052;SDS011;25758;48.200;16.338;2022-09-09T13:56:40;1.25;;;0.25;;
40052;SDS011;25758;48.200;16.338;2022-09-09T13:59:09;2.75;;;0.28;;
40052;SDS011;25758;48.200;16.338;2022-09-09T14:01:40;1.88;;;0.20;;
40052;SDS011;25758;48.200;16.338;2022-09-09T14:04:07;2.85;;;0.65;;
40052;SDS011;25758;48.200;16.338;2022-09-09T14:06:34;3.05;;;0.30;;
40052;SDS011;25758;48.200;16.338;2022-09-09T14:09:02;2.60;;;0.30;;
40052;SDS011;25758;48.200;16.338;2022-09-09T14:11:28;1.40;;;0.22;;
40052;SDS011;25758;48.200;16.338;2022-09-09T14:13:53;4.45;;;0.47;;
40052;SDS011;25758;48.200;16.338;2022-09-09T14:16:19;1.42;;;0.43;;
40052;SDS011;25758;48.200;16.338;2022-09-09T14:18:46;5.18;;;0.63;;
40052;SDS011;25758;48.200;16.338;2022-09-09T14:21:12;3.28;;;0.77;;
40052;SDS011;25758;48.200;16.338;2022-09-09T14:23:39;4.70;;;0.60;;
40052;SDS011;25758;48.200;16.338;2022-09-09T14:26:05;2.58;;;1.10;;
40052;SDS011;25758;48.200;16.338;2022-09-09T14:28:31;3.20;;;0.47;;
40052;SDS011;25758;48.200;16.338;2022-09-09T14:31:02;0.98;;;0.17;;
40052;SDS011;25758;48.200;16.338;2022-09-09T14:33:28;1.77;;;0.22;;
40052;SDS011;25758;48.200;16.338;2022-09-09T14:35:58;1.48;;;0.30;;
40052;SDS011;25758;48.200;16.338;2022-09-09T14:38:26;1.15;;;0.20;;
40052;SDS011;25758;48.200;16.338;2022-09-09T14:40:54;3.75;;;0.60;;
40052;SDS011;25758;48.200;16.338;2022-09-09T14:43:21;4.97;;;0.80;;
40052;SDS011;25758;48.200;16.338;2022-09-09T14:45:46;2.42;;;0.50;;
40052;SDS011;25758;48.200;16.338;2022-09-09T14:48:13;2.40;;;0.35;;
40052;SDS011;25758;48.200;16.338;2022-09-09T14:50:42;2.17;;;0.28;;
40052;SDS011;25758;48.200;16.338;2022-09-09T14:53:08;1.75;;;0.82;;
40052;SDS011;25758;48.200;16.338;2022-09-09T14:55:34;2.42;;;0.60;;
40052;SDS011;25758;48.200;16.338;2022-09-09T14:58:01;1.35;;;0.45;;
40052;SDS011;25758;48.200;16.338;2022-09-09T15:00:26;2.72;;;0.30;;
40052;SDS011;25758;48.200;16.338;2022-09-09T15:02:52;3.50;;;0.43;;
40052;SDS011;25758;48.200;16.338;2022-09-09T15:05:19;1.88;;;0.60;;
40052;SDS011;25758;48.200;16.338;2022-09-09T15:07:45;5.10;;;1.02;;
40052;SDS011;25758;48.200;16.338;2022-09-09T15:10:10;2.83;;;0.50;;
40052;SDS011;25758;48.200;16.338;2022-09-09T15:12:36;2.70;;;0.77;;
40052;SDS011;25758;48.200;16.338;2022-09-09T15:15:03;4.07;;;0.70;;
40052;SDS011;25758;48.200;16.338;2022-09-09T15:17:29;3.20;;;0.85;;
40052;SDS011;25758;48.200;16.338;2022-09-09T15:19:56;2.50;;;0.60;;
40052;SDS011;25758;48.200;16.338;2022-09-09T15:22:21;6.10;;;1.15;;
40052;SDS011;25758;48.200;16.338;2022-09-09T15:24:49;2.60;;;0.65;;
40052;SDS011;25758;48.200;16.338;2022-09-09T15:27:15;1.88;;;0.85;;
40052;SDS011;25758;48.200;16.338;2022-09-09T15:29:40;1.05;;;0.40;;
40052;SDS011;25758;48.200;16.338;2022-09-09T15:32:06;3.17;;;0.80;;
40052;SDS011;25758;48.200;16.338;2022-09-09T15:34:32;4.55;;;1.70;;
40052;SDS011;25758;48.200;16.338;2022-09-09T15:36:58;2.15;;;0.60;;
40052;SDS011;25758;48.200;16.338;2022-09-09T15:39:25;4.82;;;0.40;;
40052;SDS011;25758;48.200;16.338;2022-09-09T15:41:50;4.53;;;0.80;;
40052;SDS011;25758;48.200;16.338;2022-09-09T15:44:16;2.85;;;0.80;;
40052;SDS011;25758;48.200;16.338;2022-09-09T15:46:50;3.25;;;0.90;;
40052;SDS011;25758;48.200;16.338;2022-09-09T15:49:21;5.03;;;1.38;;
40052;SDS011;25758;48.200;16.338;2022-09-09T15:51:53;3.83;;;1.45;;
40052;SDS011;25758;48.200;16.338;2022-09-09T15:54:22;2.90;;;1.20;;
40052;SDS011;25758;48.200;16.338;2022-09-09T15:56:50;4.25;;;0.77;;
40052;SDS011;25758;48.200;16.338;2022-09-09T15:59:17;2.55;;;0.60;;
40052;SDS011;25758;48.200;16.338;2022-09-09T16:01:43;1.63;;;0.73;;
40052;SDS011;25758;48.200;16.338;2022-09-09T16:04:09;6.95;;;2.05;;
40052;SDS011;25758;48.200;16.338;2022-09-09T16:06:35;5.30;;;1.35;;
40052;SDS011;25758;48.200;16.338;2022-09-09T16:09:03;5.40;;;0.80;;
40052;SDS011;25758;48.200;16.338;2022-09-09T16:11:30;2.80;;;0.77;;
40052;SDS011;25758;48.200;16.338;2022-09-09T16:13:58;2.22;;;0.60;;
40052;SDS011;25758;48.200;16.338;2022-09-09T16:16:25;1.80;;;0.47;;
40052;SDS011;25758;48.200;16.338;2022-09-09T16:18:54;2.90;;;0.40;;
40052;SDS011;25758;48.200;16.338;2022-09-09T16:21:23;3.42;;;1.40;;
40052;SDS011;25758;48.200;16.338;2022-09-09T16:23:56;5.60;;;1.67;;
40052;SDS011;25758;48.200;16.338;2022-09-09T16:26:24;2.08;;;0.50;;
40052;SDS011;25758;48.200;16.338;2022-09-09T16:28:50;1.27;;;0.40;;
40052;SDS011;25758;48.200;16.338;2022-09-09T16:31:20;3.75;;;0.70;;
40052;SDS011;25758;48.200;16.338;2022-09-09T16:33:47;2.80;;;1.10;;
40052;SDS011;25758;48.200;16.338;2022-09-09T16:36:14;3.20;;;1.20;;
40052;SDS011;25758;48.200;16.338;2022-09-09T16:38:45;3.33;;;0.95;;
40052;SDS011;25758;48.200;16.338;2022-09-09T16:41:11;3.15;;;1.70;;
40052;SDS011;25758;48.200;16.338;2022-09-09T16:43:39;2.67;;;1.15;;
40052;SDS011;25758;48.200;16.338;2022-09-09T16:46:15;3.67;;;1.50;;
40052;SDS011;25758;48.200;16.338;2022-09-09T16:48:43;6.25;;;1.85;;
40052;SDS011;25758;48.200;16.338;2022-09-09T16:51:14;2.33;;;0.40;;
40052;SDS011;25758;48.200;16.338;2022-09-09T16:53:40;2.63;;;0.43;;
40052;SDS011;25758;48.200;16.338;2022-09-09T16:56:13;2.58;;;0.40;;
40052;SDS011;25758;48.200;16.338;2022-09-09T16:58:40;1.38;;;0.30;;
40052;SDS011;25758;48.200;16.338;2022-09-09T17:01:07;1.10;;;0.35;;
40052;SDS011;25758;48.200;16.338;2022-09-09T17:03:33;1.80;;;0.50;;
40052;SDS011;25758;48.200;16.338;2022-09-09T17:05:59;0.90;;;0.47;;
40052;SDS011;25758;48.200;16.338;2022-09-09T17:08:31;5.38;;;3.30;;
40052;SDS011;25758;48.200;16.338;2022-09-09T17:10:58;1.38;;;0.60;;
40052;SDS011;25758;48.200;16.338;2022-09-09T17:13:24;3.78;;;1.92;;
40052;SDS011;25758;48.200;16.338;2022-09-09T17:15:50;5.38;;;1.40;;